createdAt,value
2023-09-12T00:01:20.433Z,10.93
2023-09-12T00:03:48.359Z,11.73
2023-09-12T00:06:16.884Z,10.40
2023-09-12T00:08:44.791Z,10.90
2023-09-12T00:11:12.985Z,9.60
2023-09-12T00:13:42.133Z,9.90
2023-09-12T00:16:11.965Z,10.90
2023-09-12T00:18:40.786Z,10.20
2023-09-12T00:21:09.078Z,10.70
2023-09-12T00:23:37.217Z,10.50
2023-09-12T00:26:05.078Z,10.70
2023-09-12T00:28:34.606Z,11.03
2023-09-12T00:31:02.455Z,10.60
2023-09-12T00:33:31.860Z,12.23
2023-09-12T00:36:00.655Z,11.20
2023-09-12T00:38:28.513Z,10.13
2023-09-12T00:40:59.050Z,10.73
2023-09-12T00:43:26.947Z,11.27
2023-09-12T00:45:54.898Z,10.87
2023-09-12T00:48:24.821Z,10.43
2023-09-12T00:50:54.517Z,10.40
2023-09-12T00:53:23.096Z,11.63
2023-09-12T00:55:57.399Z,11.83
2023-09-12T00:58:25.618Z,10.60
2023-09-12T01:00:53.690Z,9.80
2023-09-12T01:03:21.613Z,11.43
2023-09-12T01:05:50.693Z,11.47
2023-09-12T01:08:20.012Z,11.50
2023-09-12T01:10:51.748Z,9.83
2023-09-12T01:13:19.639Z,11.57
2023-09-12T01:15:47.562Z,11.57
2023-09-12T01:18:15.600Z,11.83
2023-09-12T01:20:58.494Z,10.67
2023-09-12T01:23:45.793Z,11.37
2023-09-12T01:26:27.737Z,10.77
2023-09-12T01:28:59.332Z,10.97
2023-09-12T01:31:28.409Z,11.30
2023-09-12T01:33:58.526Z,10.33
2023-09-12T01:36:26.580Z,10.90
2023-09-12T01:38:54.476Z,11.67
2023-09-12T01:41:22.485Z,10.83
2023-09-12T01:43:52.941Z,11.02
2023-09-12T01:46:23.638Z,9.93
2023-09-12T01:48:53.797Z,9.60
2023-09-12T01:51:22.264Z,11.27
2023-09-12T01:53:51.442Z,11.03
2023-09-12T01:56:21.449Z,9.67
2023-09-12T01:58:49.360Z,11.33
2023-09-12T02:01:17.268Z,10.20
2023-09-12T02:03:46.468Z,11.00
2023-09-12T02:06:14.447Z,11.37
2023-09-12T02:08:42.582Z,11.93
2023-09-12T02:11:10.631Z,10.33
2023-09-12T02:13:38.462Z,10.27
2023-09-12T02:16:06.565Z,12.20
2023-09-12T02:18:34.543Z,10.30
2023-09-12T02:21:03.944Z,10.97
2023-09-12T02:23:31.813Z,10.03
2023-09-12T02:25:59.711Z,10.83
2023-09-12T02:28:27.704Z,11.23
2023-09-12T02:30:55.537Z,10.37
2023-09-12T02:33:23.442Z,10.90
2023-09-12T02:35:51.375Z,11.20
2023-09-12T02:38:20.678Z,11.73
2023-09-12T02:40:48.480Z,11.10
2023-09-12T02:43:16.292Z,11.07
2023-09-12T02:45:44.656Z,11.27
2023-09-12T02:48:12.624Z,11.03
2023-09-12T02:50:40.509Z,11.90
2023-09-12T02:53:08.478Z,11.30
2023-09-12T02:55:41.798Z,12.43
2023-09-12T02:58:09.673Z,12.37
2023-09-12T03:00:40.732Z,10.33
2023-09-12T03:03:10.311Z,10.30
2023-09-12T03:05:38.388Z,11.37
2023-09-12T03:08:06.496Z,11.43
2023-09-12T03:10:34.338Z,10.77
2023-09-12T03:13:04.138Z,11.07
2023-09-12T03:15:32.095Z,12.03
2023-09-12T03:17:59.991Z,12.90
2023-09-12T03:20:27.853Z,13.17
2023-09-12T03:22:55.692Z,16.53
2023-09-12T03:25:23.547Z,14.73
2023-09-12T03:27:51.366Z,17.27
2023-09-12T03:30:22.336Z,15.20
2023-09-12T03:32:50.214Z,14.50
2023-09-12T03:35:18.231Z,15.03
2023-09-12T03:37:46.246Z,14.30
2023-09-12T03:40:14.205Z,12.60
2023-09-12T03:42:42.793Z,13.63
2023-09-12T03:45:11.881Z,14.63
2023-09-12T03:47:41.243Z,13.93
2023-09-12T03:50:09.604Z,13.65
2023-09-12T03:52:37.469Z,15.20
2023-09-12T03:55:05.672Z,14.10
2023-09-12T03:57:33.692Z,13.60
2023-09-12T04:00:01.549Z,14.90
2023-09-12T04:02:29.399Z,15.97
2023-09-12T04:05:00.483Z,13.00
2023-09-12T04:07:28.657Z,14.57
2023-09-12T04:09:56.486Z,14.20
2023-09-12T04:12:24.483Z,13.30
2023-09-12T04:14:53.063Z,14.07
2023-09-12T04:17:20.990Z,12.73
2023-09-12T04:19:48.819Z,13.33
2023-09-12T04:22:18.492Z,13.53
2023-09-12T04:24:47.443Z,14.07
2023-09-12T04:27:15.438Z,13.70
2023-09-12T04:29:43.304Z,12.57
2023-09-12T04:32:11.474Z,15.00
2023-09-12T04:34:39.457Z,14.13
2023-09-12T04:37:07.901Z,14.90
2023-09-12T04:39:37.316Z,14.23
2023-09-12T04:42:05.903Z,13.27
2023-09-12T04:44:37.308Z,14.10
2023-09-12T04:47:05.604Z,14.50
2023-09-12T04:49:33.497Z,13.20
2023-09-12T04:52:01.449Z,13.07
2023-09-12T04:54:29.382Z,13.40
2023-09-12T04:56:58.802Z,14.53
2023-09-12T04:59:26.664Z,15.10
2023-09-12T05:01:54.605Z,16.10
2023-09-12T05:04:22.532Z,15.70
2023-09-12T05:06:50.478Z,15.93
2023-09-12T05:09:18.453Z,16.90
2023-09-12T05:11:46.314Z,16.43
2023-09-12T05:14:15.552Z,16.90
2023-09-12T05:16:43.468Z,15.10
2023-09-12T05:19:11.339Z,16.60
2023-09-12T05:21:39.201Z,15.57
2023-09-12T05:24:07.599Z,18.00
2023-09-12T05:26:35.421Z,17.40
2023-09-12T05:29:03.269Z,17.93
2023-09-12T05:31:33.035Z,16.90
2023-09-12T05:34:00.970Z,15.80
2023-09-12T05:36:28.847Z,15.07
2023-09-12T05:38:58.690Z,16.70
2023-09-12T05:41:28.380Z,16.40
2023-09-12T05:43:56.212Z,16.57
2023-09-12T05:46:24.111Z,16.80
2023-09-12T05:48:53.991Z,16.97
2023-09-12T05:51:21.960Z,15.80
2023-09-12T05:53:50.669Z,16.37
2023-09-12T05:56:18.537Z,16.53
2023-09-12T05:58:46.406Z,15.77
2023-09-12T06:01:15.560Z,15.57
2023-09-12T06:03:43.690Z,16.33
2023-09-12T06:06:13.121Z,17.20
2023-09-12T06:08:41.555Z,15.00
2023-09-12T06:11:09.618Z,17.40
2023-09-12T06:13:38.562Z,17.20
2023-09-12T06:16:06.807Z,17.30
2023-09-12T06:18:35.797Z,16.10
2023-09-12T06:21:07.476Z,18.57
2023-09-12T06:23:36.771Z,15.90
2023-09-12T06:26:04.765Z,16.80
2023-09-12T06:28:33.344Z,17.60
2023-09-12T06:31:01.327Z,16.57
2023-09-12T06:33:29.598Z,16.47
2023-09-12T06:35:57.622Z,15.40
2023-09-12T06:38:25.520Z,14.27
2023-09-12T06:40:54.744Z,15.87
2023-09-12T06:43:22.591Z,15.80
2023-09-12T06:45:51.679Z,15.23
2023-09-12T06:48:19.611Z,16.00
2023-09-12T06:50:51.503Z,17.33
2023-09-12T06:53:20.354Z,16.83
2023-09-12T06:55:48.224Z,15.60
2023-09-12T06:58:17.377Z,15.83
2023-09-12T07:00:45.274Z,13.80
2023-09-12T07:03:16.522Z,14.43
2023-09-12T07:05:45.665Z,13.90
2023-09-12T07:08:13.683Z,15.30
2023-09-12T07:10:46.392Z,12.23
2023-09-12T07:13:14.273Z,11.73
2023-09-12T07:15:43.481Z,11.63
2023-09-12T07:18:11.417Z,12.50
2023-09-12T07:20:39.301Z,12.80
2023-09-12T07:23:07.119Z,11.60
2023-09-12T07:25:40.575Z,12.00
2023-09-12T07:28:08.490Z,13.13
2023-09-12T07:30:36.698Z,12.13
2023-09-12T07:33:06.841Z,11.50
2023-09-12T07:35:34.734Z,11.37
2023-09-12T07:38:02.541Z,11.57
2023-09-12T07:40:30.413Z,9.90
2023-09-12T07:42:58.523Z,11.40
2023-09-12T07:45:26.511Z,11.63
2023-09-12T07:47:54.920Z,7.83
2023-09-12T07:50:24.133Z,6.83
2023-09-12T07:52:52.198Z,5.90
2023-09-12T07:55:20.137Z,7.10
2023-09-12T07:57:48.112Z,7.30
2023-09-12T08:00:18.015Z,7.90
2023-09-12T08:02:45.885Z,7.90
2023-09-12T08:05:13.878Z,7.87
2023-09-12T08:07:43.091Z,8.13
2023-09-12T08:10:11.343Z,7.73
2023-09-12T08:12:41.581Z,7.60
2023-09-12T08:15:10.567Z,6.53
2023-09-12T08:17:39.148Z,6.90
2023-09-12T08:20:10.848Z,7.13
2023-09-12T08:22:38.750Z,6.50
2023-09-12T08:25:08.775Z,6.90
2023-09-12T08:27:36.660Z,6.20
2023-09-12T08:30:05.387Z,6.33
2023-09-12T08:32:33.511Z,6.20
2023-09-12T08:35:01.384Z,6.30
2023-09-12T08:37:29.257Z,5.67
2023-09-12T08:40:00.068Z,6.07
2023-09-12T08:42:29.746Z,4.70
2023-09-12T08:44:57.906Z,4.90
2023-09-12T08:47:28.367Z,5.70
2023-09-12T08:49:57.472Z,4.60
2023-09-12T08:52:25.324Z,5.50
2023-09-12T08:54:53.295Z,4.90
2023-09-12T08:57:21.915Z,4.17
2023-09-12T08:59:51.815Z,4.70
2023-09-12T09:02:20.824Z,5.00
2023-09-12T09:04:51.572Z,4.43
2023-09-12T09:07:21.669Z,4.03
2023-09-12T09:09:52.693Z,4.27
2023-09-12T09:12:21.343Z,4.20
2023-09-12T09:14:49.699Z,3.80
2023-09-12T09:17:34.713Z,3.37
2023-09-12T09:20:10.148Z,3.10
2023-09-12T09:22:37.966Z,4.00
2023-09-12T09:25:13.791Z,3.23
2023-09-12T09:27:41.804Z,3.70
2023-09-12T09:30:10.839Z,3.58
2023-09-12T09:32:40.180Z,3.47
2023-09-12T09:35:09.359Z,3.10
2023-09-12T09:37:37.254Z,3.10
2023-09-12T09:40:08.146Z,2.73
2023-09-12T09:42:36.015Z,2.37
2023-09-12T09:45:04.585Z,2.50
2023-09-12T09:47:32.609Z,2.57
2023-09-12T09:50:01.819Z,2.77
2023-09-12T09:52:29.775Z,2.80
2023-09-12T09:54:57.695Z,2.70
2023-09-12T09:57:28.357Z,2.70
2023-09-12T09:59:58.566Z,2.60
2023-09-12T10:02:30.694Z,2.90
2023-09-12T10:05:01.233Z,2.80
2023-09-12T10:07:36.661Z,3.30
2023-09-12T10:10:06.517Z,3.10
2023-09-12T10:12:38.539Z,3.40
2023-09-12T10:15:08.936Z,3.00
2023-09-12T10:17:40.248Z,2.87
2023-09-12T10:20:17.460Z,2.53
2023-09-12T10:22:59.179Z,3.20
2023-09-12T10:25:29.424Z,2.83
2023-09-12T10:27:57.925Z,2.90
2023-09-12T10:30:27.923Z,2.87
2023-09-12T10:32:57.008Z,3.90
2023-09-12T10:35:24.966Z,3.70
2023-09-12T10:37:58.938Z,4.00
2023-09-12T10:40:28.094Z,3.90
2023-09-12T10:42:58.177Z,3.10
2023-09-12T10:45:26.544Z,3.57
2023-09-12T10:47:54.799Z,5.63
2023-09-12T10:50:22.870Z,6.73
2023-09-12T10:52:51.061Z,6.70
2023-09-12T10:55:20.490Z,7.00
2023-09-12T10:58:05.116Z,7.80
2023-09-12T11:00:33.842Z,7.77
2023-09-12T11:03:22.317Z,7.50
2023-09-12T11:05:55.249Z,8.40
2023-09-12T11:08:23.512Z,6.60
2023-09-12T11:11:21.154Z,6.10
2023-09-12T11:14:04.286Z,6.70
2023-09-12T11:16:32.257Z,6.40
2023-09-12T11:19:15.848Z,6.93
2023-09-12T11:21:45.085Z,7.97
2023-09-12T11:24:13.888Z,6.53
2023-09-12T11:27:00.560Z,6.70
2023-09-12T11:29:32.401Z,5.63
2023-09-12T11:32:03.865Z,5.27
2023-09-12T11:34:40.497Z,4.88
2023-09-12T11:37:08.596Z,4.90
2023-09-12T11:39:39.015Z,4.17
2023-09-12T11:42:14.526Z,4.60
2023-09-12T11:44:45.745Z,4.77
2023-09-12T11:47:14.533Z,5.47
2023-09-12T11:49:43.299Z,4.90
2023-09-12T11:52:13.434Z,3.80
2023-09-12T11:54:42.276Z,3.90
2023-09-12T11:57:12.946Z,3.67
2023-09-12T11:59:41.498Z,3.57
2023-09-12T12:02:10.493Z,4.00
2023-09-12T12:04:39.525Z,3.10
2023-09-12T12:07:08.885Z,3.30
2023-09-12T12:09:36.911Z,5.00
2023-09-12T12:12:13.906Z,4.70
2023-09-12T12:14:42.801Z,4.27
2023-09-12T12:17:12.425Z,5.00
2023-09-12T12:19:41.030Z,4.33
2023-09-12T12:22:10.668Z,4.30
2023-09-12T12:24:40.394Z,4.30
2023-09-12T12:27:08.765Z,5.00
2023-09-12T12:29:40.507Z,4.87
2023-09-12T12:32:10.229Z,4.40
2023-09-12T12:35:39.359Z,5.03
2023-09-12T12:37:32.114Z,4.60
2023-09-12T12:40:00.773Z,5.37
2023-09-12T12:42:46.429Z,5.27
2023-09-12T12:45:22.249Z,5.33
2023-09-12T12:47:54.130Z,5.00
2023-09-12T12:50:23.071Z,5.67
2023-09-12T12:52:51.308Z,5.47
2023-09-12T12:55:20.430Z,6.10
2023-09-12T12:57:51.112Z,5.57
2023-09-12T13:00:22.203Z,4.97
2023-09-12T13:02:50.215Z,5.43
2023-09-12T13:05:27.111Z,5.90
2023-09-12T13:07:55.317Z,6.60
2023-09-12T13:10:24.092Z,6.57
2023-09-12T13:12:52.536Z,5.93
2023-09-12T13:15:21.847Z,6.30
2023-09-12T13:17:50.163Z,6.03
2023-09-12T13:20:18.150Z,4.40
2023-09-12T13:22:46.217Z,4.20
2023-09-12T13:25:14.169Z,4.60
2023-09-12T13:27:42.176Z,4.30
2023-09-12T13:30:12.088Z,5.00
2023-09-12T13:32:41.318Z,4.00
2023-09-12T13:35:09.392Z,4.40
2023-09-12T13:37:37.421Z,4.00
2023-09-12T13:40:07.964Z,4.50
2023-09-12T13:42:35.926Z,3.93
2023-09-12T13:45:03.933Z,3.80
2023-09-12T13:47:31.753Z,3.80
2023-09-12T13:50:01.090Z,4.50
2023-09-12T13:52:29.072Z,4.13
2023-09-12T13:54:58.987Z,4.27
2023-09-12T13:57:27.340Z,3.63
2023-09-12T13:59:55.257Z,3.90
2023-09-12T14:02:23.987Z,4.20
2023-09-12T14:05:05.195Z,4.83
2023-09-12T14:07:39.694Z,4.10
2023-09-12T14:10:09.185Z,4.67
2023-09-12T14:12:38.169Z,4.27
2023-09-12T14:15:09.399Z,4.37
2023-09-12T14:17:40.284Z,5.67
2023-09-12T14:20:16.359Z,5.00
2023-09-12T14:22:46.453Z,4.63
2023-09-12T14:25:15.905Z,4.80
2023-09-12T14:27:46.086Z,4.83
2023-09-12T14:30:15.338Z,5.27
2023-09-12T14:32:43.270Z,4.20
2023-09-12T14:35:11.515Z,4.50
2023-09-12T14:37:39.386Z,4.03
2023-09-12T14:40:12.142Z,4.10
2023-09-12T14:42:40.055Z,5.40
2023-09-12T14:45:10.200Z,5.00
2023-09-12T14:47:38.545Z,4.07
2023-09-12T14:50:07.268Z,4.50
2023-09-12T14:52:35.699Z,4.10
2023-09-12T14:55:04.425Z,3.40
2023-09-12T14:57:34.176Z,4.00
2023-09-12T15:00:02.439Z,3.00
2023-09-12T15:02:32.729Z,3.00
2023-09-12T15:05:01.262Z,2.77
2023-09-12T15:07:30.822Z,2.60
2023-09-12T15:09:59.111Z,3.43
2023-09-12T15:12:27.372Z,3.70
2023-09-12T15:14:56.765Z,15.73
2023-09-12T15:17:24.649Z,7.80
2023-09-12T15:19:52.521Z,3.07
2023-09-12T15:22:20.383Z,3.43
2023-09-12T15:24:51.445Z,7.90
2023-09-12T15:27:19.980Z,3.80
2023-09-12T15:29:47.818Z,3.40
2023-09-12T15:32:17.006Z,3.90
2023-09-12T15:34:44.852Z,4.03
2023-09-12T15:39:45.021Z,3.10
2023-09-12T15:42:27.785Z,2.80
2023-09-12T15:45:03.113Z,2.97
2023-09-12T15:47:33.218Z,2.80
2023-09-12T15:50:01.595Z,2.80
2023-09-12T15:52:29.561Z,2.47
2023-09-12T15:54:57.467Z,5.10
2023-09-12T15:57:25.539Z,3.00
2023-09-12T15:59:53.539Z,3.13
2023-09-12T16:02:22.015Z,3.53
2023-09-12T16:04:51.330Z,2.90
2023-09-12T16:07:19.408Z,2.83
2023-09-12T16:09:48.488Z,3.00
2023-09-12T16:12:16.407Z,2.70
2023-09-12T16:14:44.740Z,5.60
2023-09-12T16:17:12.572Z,5.03
2023-09-12T16:19:40.390Z,3.87
2023-09-12T16:22:10.855Z,3.00
2023-09-12T16:24:38.995Z,3.43
2023-09-12T16:27:07.103Z,2.70
2023-09-12T16:29:35.066Z,2.60
2023-09-12T16:32:03.792Z,2.93
2023-09-12T16:34:31.827Z,2.93
2023-09-12T16:37:00.694Z,3.20
2023-09-12T16:39:30.080Z,3.00
2023-09-12T16:41:58.336Z,3.27
2023-09-12T16:44:28.957Z,3.07
2023-09-12T16:46:56.900Z,3.23
2023-09-12T16:49:24.779Z,3.30
2023-09-12T16:51:52.744Z,3.53
2023-09-12T16:54:20.659Z,3.20
2023-09-12T16:56:49.876Z,3.37
2023-09-12T16:59:17.764Z,2.77
2023-09-12T17:01:45.644Z,3.77
2023-09-12T17:04:13.596Z,3.20
2023-09-12T17:06:42.463Z,2.90
2023-09-12T17:09:11.210Z,3.10
2023-09-12T17:11:39.161Z,3.60
2023-09-12T17:14:08.346Z,3.90
2023-09-12T17:16:36.230Z,4.20
2023-09-12T17:19:04.275Z,3.83
2023-09-12T17:21:32.179Z,4.20
2023-09-12T17:24:00.091Z,3.70
2023-09-12T17:26:27.934Z,4.70
2023-09-12T17:28:55.809Z,3.83
2023-09-12T17:31:25.397Z,4.20
2023-09-12T17:33:53.304Z,4.20
2023-09-12T17:36:21.207Z,4.00
2023-09-12T17:38:49.449Z,4.27
2023-09-12T17:41:17.702Z,5.17
2023-09-12T17:43:45.809Z,3.93
2023-09-12T17:46:13.919Z,4.60
2023-09-12T17:48:43.199Z,4.43
2023-09-12T17:51:11.297Z,4.07
2023-09-12T17:53:39.243Z,4.30
2023-09-12T17:56:07.177Z,5.43
2023-09-12T17:58:35.073Z,4.10
2023-09-12T18:01:04.779Z,4.73
2023-09-12T18:03:33.120Z,3.70
2023-09-12T18:06:03.897Z,3.90
2023-09-12T18:08:31.789Z,4.33
2023-09-12T18:10:59.679Z,4.00
2023-09-12T18:13:27.569Z,3.63
2023-09-12T18:15:55.547Z,3.63
2023-09-12T18:18:23.462Z,3.60
2023-09-12T18:20:51.309Z,4.17
2023-09-12T18:23:21.289Z,4.07
2023-09-12T18:25:49.121Z,4.10
2023-09-12T18:28:39.636Z,3.67
2023-09-12T18:31:08.810Z,4.37
2023-09-12T18:33:37.527Z,3.93
2023-09-12T18:36:05.962Z,4.70
2023-09-12T18:38:36.376Z,4.40
2023-09-12T18:41:04.358Z,3.47
2023-09-12T18:43:32.402Z,4.17
2023-09-12T18:46:00.400Z,3.80
2023-09-12T18:48:28.782Z,3.97
2023-09-12T18:50:57.547Z,3.87
2023-09-12T18:53:25.407Z,3.93
2023-09-12T18:55:54.767Z,4.27
2023-09-12T18:58:22.680Z,3.90
2023-09-12T19:00:50.575Z,4.53
2023-09-12T19:03:18.858Z,3.30
2023-09-12T19:05:47.023Z,3.87
2023-09-12T19:08:15.670Z,3.60
2023-09-12T19:10:43.561Z,4.30
2023-09-12T19:13:12.796Z,4.60
2023-09-12T19:15:40.784Z,4.37
2023-09-12T19:18:08.865Z,4.30
2023-09-12T19:20:36.842Z,4.90
2023-09-12T19:23:05.099Z,4.47
2023-09-12T19:25:34.795Z,5.10
2023-09-12T19:28:04.212Z,5.50
2023-09-12T19:30:35.127Z,4.90
2023-09-12T19:33:06.738Z,5.23
2023-09-12T19:35:36.457Z,5.20
2023-09-12T19:38:05.670Z,5.30
2023-09-12T19:40:33.682Z,5.60
2023-09-12T19:43:01.691Z,6.00
2023-09-12T19:45:29.606Z,5.20
2023-09-12T19:48:01.395Z,4.77
2023-09-12T19:50:31.732Z,5.27
2023-09-12T19:52:59.651Z,5.30
2023-09-12T19:55:27.591Z,4.80
2023-09-12T19:57:55.541Z,4.73
2023-09-12T20:00:23.430Z,5.33
2023-09-12T20:02:51.664Z,5.17
2023-09-12T20:05:22.880Z,5.10
2023-09-12T20:07:51.630Z,5.30
2023-09-12T20:10:21.666Z,5.50
2023-09-12T20:12:50.353Z,5.23
2023-09-12T20:15:19.144Z,4.80
2023-09-12T20:17:52.194Z,4.97
2023-09-12T20:20:22.881Z,4.73
2023-09-12T20:22:51.075Z,4.67
2023-09-12T20:25:20.442Z,4.80
2023-09-12T20:27:48.547Z,5.53
2023-09-12T20:30:17.174Z,5.10
2023-09-12T20:32:57.873Z,4.80
2023-09-12T20:35:28.977Z,4.90
2023-09-12T20:37:58.437Z,5.43
2023-09-12T20:40:26.734Z,5.70
2023-09-12T20:42:54.760Z,5.60
2023-09-12T20:45:22.866Z,5.23
2023-09-12T20:47:52.431Z,5.03
2023-09-12T20:50:30.883Z,5.07
2023-09-12T20:53:02.579Z,4.80
2023-09-12T20:55:32.214Z,5.60
2023-09-12T20:58:00.131Z,5.83
2023-09-12T21:00:28.770Z,5.40
2023-09-12T21:02:56.852Z,5.77
2023-09-12T21:05:25.558Z,5.83
2023-09-12T21:07:53.502Z,5.60
2023-09-12T21:10:22.895Z,4.47
2023-09-12T21:12:52.238Z,6.20
2023-09-12T21:15:23.574Z,5.70
2023-09-12T21:17:52.180Z,4.87
2023-09-12T21:20:20.212Z,5.30
2023-09-12T21:22:48.484Z,5.90
2023-09-12T21:25:16.690Z,5.83
2023-09-12T21:27:46.068Z,5.37
2023-09-12T21:30:14.806Z,5.50
2023-09-12T21:32:41.777Z,6.73
2023-09-12T21:35:16.650Z,6.33
2023-09-12T21:37:45.196Z,6.00
2023-09-12T21:40:14.246Z,6.57
2023-09-12T21:42:42.488Z,7.37
2023-09-12T21:45:14.337Z,6.10
2023-09-12T21:47:43.912Z,6.50
2023-09-12T21:50:12.776Z,6.40
2023-09-12T21:52:40.920Z,7.10
2023-09-12T21:55:10.126Z,6.20
2023-09-12T21:57:38.256Z,6.10
2023-09-12T22:00:19.445Z,6.90
2023-09-12T22:02:51.256Z,6.20
2023-09-12T22:05:19.556Z,6.03
2023-09-12T22:07:47.545Z,6.20
2023-09-12T22:10:15.569Z,5.63
2023-09-12T22:12:43.581Z,6.00
2023-09-12T22:15:12.330Z,6.40
2023-09-12T22:17:40.206Z,7.27
2023-09-12T22:20:13.662Z,7.30
2023-09-12T22:22:43.721Z,7.10
2023-09-12T22:25:12.462Z,7.70
2023-09-12T22:27:41.135Z,8.40
2023-09-12T22:30:09.879Z,7.90
2023-09-12T22:32:38.553Z,7.03
2023-09-12T22:35:07.093Z,8.10
2023-09-12T22:37:36.295Z,7.67
2023-09-12T22:40:06.225Z,7.00
2023-09-12T22:42:34.091Z,6.60
2023-09-12T22:45:02.016Z,7.40
2023-09-12T22:47:29.997Z,7.17
2023-09-12T22:49:59.284Z,7.27
2023-09-12T22:52:27.373Z,6.50
2023-09-12T22:54:56.548Z,7.13
2023-09-12T22:57:24.374Z,6.90
2023-09-12T22:59:52.202Z,6.60
2023-09-12T23:02:20.070Z,7.83
2023-09-12T23:04:48.101Z,6.67
2023-09-12T23:07:16.215Z,7.67
2023-09-12T23:09:44.117Z,6.50
2023-09-12T23:12:13.352Z,7.00
2023-09-12T23:14:41.220Z,7.70
2023-09-12T23:17:09.722Z,6.67
2023-09-12T23:19:37.651Z,3.40
2023-09-12T23:22:06.123Z,3.03
2023-09-12T23:24:38.142Z,3.50
2023-09-12T23:27:08.061Z,5.40
2023-09-12T23:29:37.840Z,4.40
2023-09-12T23:32:06.434Z,4.60
2023-09-12T23:34:34.314Z,4.80
2023-09-12T23:37:02.209Z,3.50
2023-09-12T23:39:30.166Z,4.10
2023-09-12T23:41:58.115Z,4.37
2023-09-12T23:44:25.977Z,4.73
2023-09-12T23:46:55.568Z,4.70
2023-09-12T23:49:23.494Z,4.90
2023-09-12T23:51:51.533Z,4.83
2023-09-12T23:54:19.478Z,4.13
2023-09-12T23:56:47.374Z,5.10
2023-09-12T23:59:15.812Z,3.93
